Time;durP1;ratioP1;P1;durP2;ratioP2;P2;SDS_P1;SDS_P2;PMS_P1;PMS_P2;Temp;Humidity;BMP_temperature;BMP_pressure;BME280_temperature;BME280_humidity;BME280_pressure;Samples;Min_cycle;Max_cycle;Signal;HPM_P1;HPM_P2
2022/08/31 00:03:56;;;;;;;7.55;2.05;;;20.80;83.40;;;;;;5083966;28;45421;-66
2022/08/31 00:06:24;;;;;;;9.85;2.53;;;20.80;83.20;;;;;;5067232;28;45259;-66
2022/08/31 00:08:51;;;;;;;3.30;2.05;;;20.80;83.60;;;;;;5063379;28;45585;-66
2022/08/31 00:11:26;;;;;;;9.45;2.38;;;20.80;82.90;;;;;;5063114;28;45436;-66
2022/08/31 00:13:54;;;;;;;5.60;1.92;;;20.80;83.20;;;;;;5062335;28;45323;-66
2022/08/31 00:16:22;;;;;;;4.00;2.10;;;20.80;83.20;;;;;;5063577;28;45376;-67
2022/08/31 00:18:51;;;;;;;8.18;2.28;;;20.80;81.60;;;;;;5054752;28;45527;-66
2022/08/31 00:21:19;;;;;;;6.05;1.90;;;20.80;81.90;;;;;;5057578;28;46587;-66
2022/08/31 00:23:47;;;;;;;3.58;1.90;;;20.80;81.00;;;;;;5060886;28;45599;-66
2022/08/31 00:26:14;;;;;;;3.42;1.95;;;20.80;81.20;;;;;;5059726;28;45385;-67
2022/08/31 00:28:41;;;;;;;6.32;2.50;;;20.80;81.10;;;;;;5059275;28;45707;-66
2022/08/31 00:31:08;;;;;;;5.35;2.13;;;20.80;81.00;;;;;;5059492;28;46056;-66
2022/08/31 00:33:36;;;;;;;6.88;2.45;;;20.80;81.10;;;;;;5056366;28;45393;-66
2022/08/31 00:36:04;;;;;;;8.38;2.10;;;20.80;81.60;;;;;;5058543;28;45437;-66
2022/08/31 00:38:30;;;;;;;11.07;2.75;;;20.80;81.90;;;;;;5061230;28;45552;-66
2022/08/31 00:40:59;;;;;;;6.57;2.45;;;20.80;81.90;;;;;;5057664;28;46516;-67
2022/08/31 00:43:39;;;;;;;5.50;2.47;;;20.80;81.70;;;;;;5063039;28;45518;-66
2022/08/31 00:46:07;;;;;;;9.90;2.22;;;20.80;82.10;;;;;;5062842;28;45418;-66
2022/08/31 00:48:35;;;;;;;6.82;2.80;;;20.80;81.80;;;;;;5062472;28;45403;-67
2022/08/31 00:51:02;;;;;;;8.70;2.60;;;20.70;82.40;;;;;;5063073;28;47506;-66
2022/08/31 00:53:29;;;;;;;5.88;2.10;;;20.70;81.90;;;;;;5078004;28;45397;-67
2022/08/31 00:55:58;;;;;;;7.07;2.38;;;20.70;81.80;;;;;;5079566;28;45282;-66
2022/08/31 00:58:26;;;;;;;5.30;2.30;;;20.80;82.10;;;;;;5062040;28;45628;-66
2022/08/31 01:00:53;;;;;;;4.07;2.38;;;20.70;82.60;;;;;;5061192;28;48031;-66
2022/08/31 01:03:21;;;;;;;5.47;2.65;;;20.80;82.70;;;;;;5062680;28;45429;-67
2022/08/31 01:05:49;;;;;;;4.13;2.28;;;20.70;82.60;;;;;;5056957;28;45441;-66
2022/08/31 01:08:16;;;;;;;4.25;2.40;;;20.70;82.20;;;;;;5061304;28;45542;-67
2022/08/31 01:10:45;;;;;;;4.40;2.40;;;20.80;82.40;;;;;;5063235;28;47336;-66
2022/08/31 01:13:15;;;;;;;5.55;2.33;;;20.80;82.20;;;;;;5060262;28;45629;-67
2022/08/31 01:15:49;;;;;;;5.32;2.10;;;20.80;83.00;;;;;;5054305;28;45298;-67
2022/08/31 01:18:17;;;;;;;2.90;2.08;;;20.70;82.30;;;;;;5058695;28;45405;-66
2022/08/31 01:20:54;;;;;;;5.22;2.33;;;20.70;82.20;;;;;;5060184;28;48497;-66
2022/08/31 01:23:26;;;;;;;7.78;2.40;;;20.80;82.10;;;;;;5059249;28;45426;-66
2022/08/31 01:25:55;;;;;;;6.20;2.05;;;20.70;82.00;;;;;;5061219;28;45309;-67
2022/08/31 01:28:22;;;;;;;5.55;1.95;;;20.70;81.20;;;;;;5054738;28;45657;-66
2022/08/31 01:31:00;;;;;;;5.88;1.85;;;20.70;81.00;;;;;;5059590;28;46083;-67
2022/08/31 01:33:26;;;;;;;5.05;2.20;;;20.70;80.80;;;;;;5059146;28;45392;-67
2022/08/31 01:35:53;;;;;;;2.53;1.65;;;20.60;81.20;;;;;;5058131;28;45382;-66
2022/08/31 01:38:22;;;;;;;5.88;2.15;;;20.60;81.00;;;;;;5058760;28;45459;-67
2022/08/31 01:40:52;;;;;;;4.65;2.60;;;20.60;80.40;;;;;;5060614;28;45568;-66
2022/08/31 01:43:20;;;;;;;3.25;2.10;;;20.60;81.10;;;;;;5062757;28;45354;-66
2022/08/31 01:45:47;;;;;;;3.72;2.05;;;20.60;81.00;;;;;;5062436;28;45203;-67
2022/08/31 01:48:15;;;;;;;4.90;1.92;;;20.60;81.30;;;;;;5062093;28;45503;-66
2022/08/31 01:50:42;;;;;;;4.68;1.98;;;20.60;80.90;;;;;;5061179;28;47543;-67
2022/08/31 01:53:09;;;;;;;4.85;2.28;;;20.60;81.30;;;;;;5061780;28;45371;-67
2022/08/31 01:55:38;;;;;;;4.32;1.85;;;20.60;82.30;;;;;;5062496;28;45218;-66
2022/08/31 01:58:05;;;;;;;4.32;2.10;;;20.60;80.90;;;;;;5061924;28;45416;-67
2022/08/31 02:00:32;;;;;;;2.65;2.15;;;20.60;81.00;;;;;;5062012;28;45319;-67
2022/08/31 02:03:01;;;;;;;4.00;2.22;;;20.60;81.00;;;;;;5061888;28;45454;-66
2022/08/31 02:05:28;;;;;;;7.13;1.98;;;20.60;81.20;;;;;;5060944;28;45710;-67
2022/08/31 02:07:55;;;;;;;3.72;2.22;;;20.60;82.70;;;;;;5060486;28;45316;-67
2022/08/31 02:10:23;;;;;;;7.65;2.47;;;20.50;83.60;;;;;;5061465;28;47523;-67
2022/08/31 02:12:51;;;;;;;4.80;2.40;;;20.50;83.70;;;;;;5059476;28;45308;-67
2022/08/31 02:15:18;;;;;;;5.28;2.40;;;20.40;85.70;;;;;;5058970;28;45550;-67
2022/08/31 02:17:45;;;;;;;4.05;2.42;;;20.40;87.00;;;;;;5063515;28;45431;-66
2022/08/31 02:20:13;;;;;;;5.28;2.65;;;20.40;87.50;;;;;;5057293;28;47653;-66
2022/08/31 02:22:41;;;;;;;6.70;2.67;;;20.40;88.10;;;;;;5053672;28;46137;-66
2022/08/31 02:25:09;;;;;;;8.00;2.40;;;20.40;88.30;;;;;;5059703;28;45554;-66
2022/08/31 02:27:37;;;;;;;6.03;2.80;;;20.30;88.00;;;;;;5059607;28;45429;-67
2022/08/31 02:30:07;;;;;;;5.03;2.35;;;20.30;88.60;;;;;;5059405;28;45398;-67
2022/08/31 02:32:34;;;;;;;3.83;2.22;;;20.30;89.70;;;;;;5061307;28;45488;-66
2022/08/31 02:35:01;;;;;;;3.40;2.20;;;20.40;88.40;;;;;;5059755;28;45402;-67
2022/08/31 02:37:28;;;;;;;3.30;2.30;;;20.40;87.90;;;;;;5063537;28;45320;-67
2022/08/31 02:39:54;;;;;;;4.47;2.40;;;20.40;87.00;;;;;;5063985;28;47106;-67
2022/08/31 02:42:21;;;;;;;4.78;2.15;;;20.40;87.00;;;;;;5064840;28;45415;-66
2022/08/31 02:44:48;;;;;;;4.28;2.22;;;20.50;86.70;;;;;;5064717;28;45215;-66
2022/08/31 02:47:16;;;;;;;4.07;2.20;;;20.40;86.80;;;;;;5064933;28;45376;-66
2022/08/31 02:49:43;;;;;;;6.38;2.75;;;20.50;87.30;;;;;;5043824;28;46619;-67
2022/08/31 02:52:10;;;;;;;4.20;2.50;;;20.50;87.30;;;;;;5058938;28;45779;-66
2022/08/31 02:54:36;;;;;;;4.13;2.67;;;20.50;86.50;;;;;;5064982;28;45218;-66
2022/08/31 02:57:03;;;;;;;5.13;2.30;;;20.40;86.60;;;;;;5064569;28;45646;-67
2022/08/31 02:59:30;;;;;;;6.03;2.95;;;20.40;86.40;;;;;;5063746;28;47978;-67
2022/08/31 03:01:57;;;;;;;4.80;2.70;;;20.40;88.10;;;;;;5064323;28;46130;-66
2022/08/31 03:04:25;;;;;;;5.95;2.53;;;20.40;88.90;;;;;;5064660;28;45399;-67
2022/08/31 03:06:52;;;;;;;3.83;2.25;;;20.50;88.90;;;;;;5063663;28;45260;-66
2022/08/31 03:09:18;;;;;;;5.65;2.40;;;20.50;87.90;;;;;;5064962;28;45448;-67
2022/08/31 03:11:45;;;;;;;7.38;2.35;;;20.40;87.30;;;;;;5062861;28;45378;-67
2022/08/31 03:14:12;;;;;;;5.20;2.20;;;20.50;88.00;;;;;;5062143;28;45386;-67
2022/08/31 03:16:39;;;;;;;3.65;2.35;;;20.40;88.80;;;;;;5055642;28;45429;-67
2022/08/31 03:19:06;;;;;;;6.15;2.30;;;20.40;90.60;;;;;;5060012;28;46578;-67
2022/08/31 03:21:34;;;;;;;2.88;2.03;;;20.40;91.80;;;;;;5061659;28;45487;-66
2022/08/31 03:24:01;;;;;;;5.22;2.28;;;20.30;92.20;;;;;;5062160;28;45390;-67
2022/08/31 03:26:28;;;;;;;3.92;2.50;;;20.20;91.50;;;;;;5065829;28;45511;-66
2022/08/31 03:28:55;;;;;;;3.60;2.10;;;20.30;91.70;;;;;;5061114;28;48051;-67
2022/08/31 03:31:23;;;;;;;3.53;2.30;;;20.20;91.90;;;;;;5060264;28;45333;-67
2022/08/31 03:33:50;;;;;;;5.90;2.20;;;20.20;92.10;;;;;;5062603;28;45530;-66
2022/08/31 03:36:16;;;;;;;6.00;2.45;;;20.30;91.70;;;;;;5061561;28;45642;-66
2022/08/31 03:38:45;;;;;;;3.75;2.38;;;20.30;92.10;;;;;;5057581;28;47578;-67
2022/08/31 03:41:13;;;;;;;3.63;2.20;;;20.30;91.80;;;;;;5059576;28;46328;-67
2022/08/31 03:43:40;;;;;;;4.05;2.20;;;20.30;92.10;;;;;;5063543;28;45545;-66
2022/08/31 03:46:07;;;;;;;9.48;2.58;;;20.20;91.90;;;;;;5059319;28;45447;-66
2022/08/31 03:48:33;;;;;;;2.95;1.90;;;20.20;91.50;;;;;;5062990;28;47216;-66
2022/08/31 03:51:00;;;;;;;5.93;2.40;;;20.10;91.20;;;;;;5061754;28;45293;-67
2022/08/31 03:53:28;;;;;;;3.53;1.90;;;20.10;91.60;;;;;;5058166;28;45344;-66
2022/08/31 03:56:00;;;;;;;5.05;2.20;;;20.10;92.00;;;;;;5057101;28;45755;-66
2022/08/31 03:58:28;;;;;;;14.60;2.80;;;20.20;91.90;;;;;;5055726;28;45297;-67
2022/08/31 04:00:55;;;;;;;11.98;2.50;;;20.20;92.30;;;;;;5062454;28;46032;-66
2022/08/31 04:03:22;;;;;;;4.47;2.10;;;20.20;92.10;;;;;;5063559;28;45725;-67
2022/08/31 04:05:49;;;;;;;6.95;2.10;;;20.20;92.40;;;;;;5062220;28;45537;-67
2022/08/31 04:08:19;;;;;;;6.50;2.42;;;20.20;91.90;;;;;;5063454;28;45459;-67
2022/08/31 04:10:49;;;;;;;4.70;2.10;;;20.20;92.70;;;;;;5063092;28;45433;-67
2022/08/31 04:13:17;;;;;;;4.72;1.98;;;20.20;92.30;;;;;;5063387;28;45226;-66
2022/08/31 04:15:45;;;;;;;8.60;2.45;;;20.10;92.50;;;;;;5064407;28;45306;-66
2022/08/31 04:18:12;;;;;;;4.72;2.28;;;20.00;92.70;;;;;;5060302;28;46525;-66
2022/08/31 04:20:40;;;;;;;7.65;2.80;;;20.00;92.70;;;;;;5062356;28;45613;-67
2022/08/31 04:23:08;;;;;;;3.47;1.60;;;20.00;92.30;;;;;;5063082;28;45296;-66
2022/08/31 04:25:38;;;;;;;3.25;1.90;;;20.10;92.90;;;;;;5061742;28;45339;-67
2022/08/31 04:28:07;;;;;;;2.88;2.00;;;20.10;92.30;;;;;;5060127;28;45460;-68
2022/08/31 04:30:37;;;;;;;5.28;2.28;;;20.10;92.30;;;;;;5059374;28;45575;-67
2022/08/31 04:33:04;;;;;;;6.15;1.98;;;20.10;92.90;;;;;;5063553;28;45546;-67
2022/08/31 04:35:31;;;;;;;3.13;2.20;;;20.10;92.10;;;;;;5057165;28;45416;-67
2022/08/31 04:37:58;;;;;;;3.63;2.10;;;20.10;92.60;;;;;;5061035;28;46580;-66
2022/08/31 04:40:24;;;;;;;5.97;2.17;;;20.10;92.10;;;;;;5058910;28;45407;-67
2022/08/31 04:42:51;;;;;;;3.63;1.88;;;20.10;92.10;;;;;;5059495;28;45379;-67
2022/08/31 04:45:18;;;;;;;7.35;2.00;;;20.10;92.20;;;;;;5060007;28;45359;-67
2022/08/31 04:47:46;;;;;;;4.40;1.80;;;20.10;92.60;;;;;;5060314;28;47531;-67
2022/08/31 04:50:15;;;;;;;4.80;2.17;;;20.00;90.90;;;;;;5060795;28;45450;-66
2022/08/31 04:52:42;;;;;;;5.18;1.92;;;20.00;90.90;;;;;;5061647;28;45607;-66
2022/08/31 04:55:10;;;;;;;3.42;1.88;;;19.90;91.10;;;;;;5059561;28;45435;-66
2022/08/31 04:57:39;;;;;;;3.58;2.05;;;19.70;90.90;;;;;;5058002;28;45380;-66
2022/08/31 05:00:09;;;;;;;8.27;1.73;;;19.70;90.90;;;;;;5056826;28;45476;-66
2022/08/31 05:02:36;;;;;;;3.15;1.85;;;19.70;90.60;;;;;;5061152;28;45774;-67
2022/08/31 05:05:06;;;;;;;6.97;2.15;;;19.80;91.50;;;;;;5060114;28;45419;-68
2022/08/31 05:07:33;;;;;;;4.45;1.85;;;19.60;92.50;;;;;;5058924;28;48123;-67
2022/08/31 05:10:00;;;;;;;3.92;2.15;;;19.70;92.10;;;;;;5060470;28;45270;-66
2022/08/31 05:12:27;;;;;;;4.28;2.30;;;19.80;92.00;;;;;;5059940;28;45412;-67
2022/08/31 05:14:54;;;;;;;5.18;1.90;;;19.80;92.20;;;;;;5060163;28;45502;-67
2022/08/31 05:17:20;;;;;;;4.30;1.98;;;19.90;92.50;;;;;;5059685;28;46298;-67
2022/08/31 05:19:47;;;;;;;5.00;2.30;;;19.90;91.90;;;;;;5059669;28;45365;-67
2022/08/31 05:22:16;;;;;;;5.30;2.15;;;19.90;92.20;;;;;;5059412;28;45552;-67
2022/08/31 05:24:42;;;;;;;3.75;2.00;;;19.80;92.60;;;;;;5060090;28;45541;-67
2022/08/31 05:27:09;;;;;;;3.58;2.17;;;19.90;92.10;;;;;;5055902;28;45512;-67
2022/08/31 05:29:36;;;;;;;3.53;2.08;;;19.80;91.80;;;;;;5057972;28;45638;-67
2022/08/31 05:32:03;;;;;;;5.18;1.95;;;19.70;91.80;;;;;;5059286;28;45548;-67
2022/08/31 05:34:30;;;;;;;8.30;2.28;;;19.70;91.50;;;;;;5059075;28;45384;-67
2022/08/31 05:36:57;;;;;;;5.93;2.05;;;19.70;91.50;;;;;;5055689;28;48081;-67
2022/08/31 05:39:25;;;;;;;3.05;1.80;;;19.80;91.70;;;;;;5057684;28;45417;-67
2022/08/31 05:41:53;;;;;;;3.50;1.60;;;19.80;91.40;;;;;;5059040;28;45633;-66
2022/08/31 05:44:20;;;;;;;2.47;1.80;;;20.30;91.30;;;;;;5053332;28;45385;-67
2022/08/31 05:46:47;;;;;;;2.78;1.52;;;20.70;90.20;;;;;;5054542;28;45447;-66
2022/08/31 05:49:14;;;;;;;6.32;1.75;;;20.80;89.80;;;;;;5058399;28;45347;-66
2022/08/31 05:51:41;;;;;;;2.58;1.55;;;20.80;90.00;;;;;;5061628;28;45761;-66
2022/08/31 05:54:09;;;;;;;2.65;1.83;;;20.90;89.20;;;;;;5059022;28;45300;-67
2022/08/31 05:56:40;;;;;;;4.63;1.63;;;21.10;87.70;;;;;;5060488;28;46325;-67
2022/08/31 05:59:08;;;;;;;2.63;1.70;;;21.10;87.80;;;;;;5061943;28;45332;-67
2022/08/31 06:01:38;;;;;;;5.15;2.22;;;21.10;88.40;;;;;;5060996;28;45438;-67
2022/08/31 06:04:05;;;;;;;2.22;1.67;;;21.10;87.50;;;;;;5062111;28;45482;-67
2022/08/31 06:06:33;;;;;;;4.60;2.20;;;21.20;87.00;;;;;;5060881;28;47047;-67
2022/08/31 06:08:59;;;;;;;5.55;2.05;;;21.20;87.00;;;;;;5056896;28;45337;-67
2022/08/31 06:11:29;;;;;;;3.85;1.70;;;21.20;87.60;;;;;;5061912;28;45243;-66
2022/08/31 06:14:00;;;;;;;3.08;1.77;;;21.20;89.10;;;;;;5064825;28;45609;-67
2022/08/31 06:16:29;;;;;;;5.30;1.70;;;21.10;87.50;;;;;;5061635;28;45267;-68
2022/08/31 06:18:57;;;;;;;5.60;2.40;;;21.20;87.70;;;;;;5061585;28;45351;-67
2022/08/31 06:21:26;;;;;;;5.22;2.33;;;21.10;87.50;;;;;;5064710;28;45571;-67
2022/08/31 06:23:54;;;;;;;4.82;1.90;;;21.10;87.70;;;;;;5063463;28;45312;-67
2022/08/31 06:26:22;;;;;;;4.68;1.88;;;21.00;87.60;;;;;;5063644;28;46654;-67
2022/08/31 06:28:51;;;;;;;3.80;2.20;;;21.00;88.10;;;;;;5060699;28;45463;-68
2022/08/31 06:31:23;;;;;;;3.17;1.83;;;21.20;87.60;;;;;;5061168;28;45424;-67
2022/08/31 06:33:50;;;;;;;6.05;2.15;;;21.20;87.20;;;;;;5063238;28;45513;-67
2022/08/31 06:36:19;;;;;;;4.78;1.80;;;21.10;87.60;;;;;;5057776;28;46532;-67
2022/08/31 06:38:47;;;;;;;4.00;1.80;;;21.10;87.60;;;;;;5064159;28;45566;-67
2022/08/31 06:41:16;;;;;;;3.83;2.15;;;20.70;88.40;;;;;;5062805;28;45396;-68
2022/08/31 06:43:43;;;;;;;2.30;1.60;;;20.20;90.10;;;;;;5061695;28;45201;-67
2022/08/31 06:46:11;;;;;;;4.70;1.58;;;20.30;91.20;;;;;;5063576;28;47485;-68
2022/08/31 06:48:39;;;;;;;2.60;1.38;;;21.00;90.30;;;;;;5063534;28;45346;-67
2022/08/31 06:51:07;;;;;;;2.35;1.75;;;21.40;88.00;;;;;;5061942;28;45531;-67
2022/08/31 06:53:36;;;;;;;4.38;1.98;;;21.40;85.80;;;;;;5062259;28;45602;-67
2022/08/31 06:56:04;;;;;;;8.00;1.80;;;20.90;87.30;;;;;;5062099;28;46249;-67
2022/08/31 06:58:33;;;;;;;4.65;1.70;;;20.30;89.70;;;;;;5062868;28;45543;-67
2022/08/31 07:01:05;;;;;;;6.35;1.88;;;20.00;90.80;;;;;;5061087;28;45451;-68
2022/08/31 07:03:34;;;;;;;4.75;1.92;;;19.90;91.00;;;;;;5054807;28;45378;-68
2022/08/31 07:06:07;;;;;;;3.55;1.95;;;19.90;90.90;;;;;;5059767;28;47069;-68
2022/08/31 07:08:34;;;;;;;3.47;1.88;;;19.70;91.40;;;;;;5059404;28;45307;-67
2022/08/31 07:11:01;;;;;;;7.20;2.25;;;19.90;91.00;;;;;;5058356;28;45364;-68
2022/08/31 07:13:28;;;;;;;5.93;1.98;;;19.80;90.30;;;;;;5060259;28;45632;-67
2022/08/31 07:16:03;;;;;;;6.63;2.13;;;19.70;90.90;;;;;;5062481;28;46742;-67
2022/08/31 07:18:30;;;;;;;7.28;2.20;;;19.90;91.30;;;;;;5062276;28;45555;-67
2022/08/31 07:21:08;;;;;;;3.88;1.75;;;19.90;90.50;;;;;;5061526;28;45642;-67
2022/08/31 07:23:35;;;;;;;4.20;1.98;;;20.00;90.60;;;;;;5060053;28;45482;-67
2022/08/31 07:26:05;;;;;;;4.00;2.10;;;20.00;90.60;;;;;;5061432;28;45431;-67
2022/08/31 07:28:32;;;;;;;4.07;2.20;;;20.10;90.60;;;;;;5059440;28;45534;-66
2022/08/31 07:30:59;;;;;;;3.90;2.05;;;19.90;90.10;;;;;;5061203;28;45288;-66
2022/08/31 07:33:26;;;;;;;4.25;1.80;;;19.80;90.20;;;;;;5059933;28;45658;-66
2022/08/31 07:35:53;;;;;;;11.13;1.92;;;19.80;90.10;;;;;;5061597;28;46589;-67
2022/08/31 07:43:58;;;;;;;6.45;1.90;;;20.50;88.60;;;;;;5053894;28;45477;-67
2022/08/31 07:46:28;;;;;;;4.95;2.20;;;20.70;87.00;;;;;;5057923;28;45567;-68
2022/08/31 07:48:55;;;;;;;3.65;1.80;;;20.70;87.70;;;;;;5056788;28;45370;-66
2022/08/31 07:51:23;;;;;;;11.38;1.85;;;20.70;87.00;;;;;;5060074;28;45561;-66
2022/08/31 07:53:51;;;;;;;5.75;2.05;;;20.80;85.90;;;;;;5061023;28;45492;-67
2022/08/31 07:56:18;;;;;;;8.90;2.17;;;21.00;85.80;;;;;;5058843;28;45374;-67
2022/08/31 07:58:46;;;;;;;5.72;2.30;;;21.00;85.70;;;;;;5061806;28;45375;-67
2022/08/31 08:01:13;;;;;;;5.57;1.85;;;21.00;85.30;;;;;;5059478;28;45362;-67
2022/08/31 08:03:43;;;;;;;5.55;1.83;;;21.00;85.90;;;;;;5061271;28;45450;-67
2022/08/31 08:06:13;;;;;;;2.88;2.10;;;21.10;85.90;;;;;;5057677;28;47964;-67
2022/08/31 08:08:41;;;;;;;5.70;1.92;;;21.10;86.10;;;;;;5055687;28;45410;-66
2022/08/31 08:11:10;;;;;;;4.22;1.92;;;21.10;85.30;;;;;;5059137;28;45345;-67
2022/08/31 08:13:36;;;;;;;3.95;1.85;;;21.20;84.30;;;;;;5061960;28;45482;-67
2022/08/31 08:16:03;;;;;;;5.20;1.60;;;21.20;84.40;;;;;;5058644;28;46735;-67
2022/08/31 08:18:30;;;;;;;2.92;1.85;;;21.20;84.60;;;;;;5059304;28;45478;-67
2022/08/31 08:20:57;;;;;;;2.58;1.80;;;21.20;84.50;;;;;;5057223;28;45460;-67
2022/08/31 08:23:24;;;;;;;6.20;2.15;;;21.30;84.20;;;;;;5059517;28;45325;-67
2022/08/31 08:25:50;;;;;;;3.65;1.90;;;21.40;83.70;;;;;;5059876;28;46618;-67
2022/08/31 08:28:20;;;;;;;5.00;1.80;;;21.40;83.30;;;;;;5055177;28;45516;-67
2022/08/31 08:30:49;;;;;;;6.40;2.03;;;21.40;83.60;;;;;;5059469;28;45385;-67
2022/08/31 08:33:16;;;;;;;4.20;2.05;;;21.40;82.90;;;;;;5059446;28;45548;-67
2022/08/31 08:35:43;;;;;;;4.47;1.98;;;21.40;82.90;;;;;;5059911;28;46618;-67
2022/08/31 08:38:10;;;;;;;8.90;2.30;;;21.50;82.60;;;;;;5058753;28;45318;-67
2022/08/31 08:40:41;;;;;;;6.80;2.10;;;21.50;82.10;;;;;;5060030;28;45398;-67
2022/08/31 08:43:10;;;;;;;5.47;2.17;;;21.60;82.60;;;;;;5060213;28;45631;-67
2022/08/31 08:45:40;;;;;;;3.85;1.77;;;21.50;82.60;;;;;;5061761;28;45264;-68
2022/08/31 08:48:08;;;;;;;6.63;1.60;;;21.60;82.40;;;;;;5062494;28;45379;-68
2022/08/31 08:50:37;;;;;;;4.07;2.08;;;21.60;82.20;;;;;;5058133;28;45310;-67
2022/08/31 08:53:04;;;;;;;2.78;2.00;;;21.70;81.50;;;;;;5059017;28;45729;-67
2022/08/31 08:55:35;;;;;;;3.28;2.00;;;21.80;81.30;;;;;;5059307;28;47507;-68
2022/08/31 08:58:06;;;;;;;6.13;2.20;;;21.80;80.30;;;;;;5059294;28;45257;-68
2022/08/31 09:00:34;;;;;;;7.18;2.20;;;21.80;79.80;;;;;;5060159;28;45426;-67
2022/08/31 09:03:06;;;;;;;6.78;3.80;;;21.90;80.50;;;;;;5059918;28;45516;-67
2022/08/31 09:05:55;;;;;;;3.88;2.28;;;21.80;79.90;;;;;;5060737;28;47484;-67
2022/08/31 09:08:41;;;;;;;3.85;2.00;;;21.90;80.50;;;;;;5059678;28;45984;-67
2022/08/31 09:11:16;;;;;;;5.32;1.80;;;22.00;79.60;;;;;;5056219;28;45371;-67
2022/08/31 09:13:54;;;;;;;5.50;2.17;;;22.00;80.00;;;;;;5055110;28;45540;-67
2022/08/31 09:16:37;;;;;;;5.03;2.28;;;22.00;80.00;;;;;;5060050;28;45391;-67
2022/08/31 09:19:10;;;;;;;5.22;2.30;;;22.00;80.00;;;;;;5055632;28;45309;-67
2022/08/31 09:21:42;;;;;;;10.82;2.47;;;22.00;80.00;;;;;;5060721;28;45690;-67
2022/08/31 09:24:11;;;;;;;6.72;2.30;;;22.00;79.40;;;;;;5058082;28;45440;-67
2022/08/31 09:26:59;;;;;;;4.13;2.08;;;22.10;80.00;;;;;;5055580;28;46229;-67
2022/08/31 09:29:28;;;;;;;3.90;2.10;;;22.10;80.00;;;;;;5058677;28;45359;-66
2022/08/31 09:32:05;;;;;;;3.58;2.40;;;22.10;78.70;;;;;;5058158;28;45305;-66
2022/08/31 09:34:36;;;;;;;5.97;2.20;;;21.90;79.10;;;;;;5059384;28;45463;-67
2022/08/31 09:37:15;;;;;;;3.47;2.08;;;22.00;79.40;;;;;;5058243;28;48243;-67
2022/08/31 09:39:46;;;;;;;3.80;2.03;;;22.10;80.10;;;;;;5051537;28;45298;-66
2022/08/31 09:42:18;;;;;;;3.15;1.80;;;22.20;78.70;;;;;;5056979;28;45458;-67
2022/08/31 09:44:49;;;;;;;4.45;2.55;;;22.20;78.10;;;;;;5052877;28;45464;-66
2022/08/31 09:47:49;;;;;;;4.25;2.38;;;22.10;77.30;;;;;;5057807;28;46413;-68
2022/08/31 09:50:40;;;;;;;8.25;2.63;;;21.90;78.50;;;;;;5056254;28;45324;-68
2022/08/31 09:56:15;;;;;;;3.40;1.88;;;21.60;78.80;;;;;;5058753;28;45431;-69
2022/08/31 09:58:44;;;;;;;4.85;2.17;;;21.90;79.90;;;;;;5055972;28;48245;-69
2022/08/31 10:01:20;;;;;;;4.82;2.10;;;22.20;79.50;;;;;;5059937;28;45473;-68
2022/08/31 10:03:48;;;;;;;7.90;2.17;;;22.30;78.70;;;;;;5060575;28;45341;-69
2022/08/31 10:06:43;;;;;;;8.98;2.45;;;22.40;76.50;;;;;;5061078;28;45230;-68
2022/08/31 10:09:21;;;;;;;7.65;2.03;;;22.30;79.70;;;;;;5061289;28;48002;-68
2022/08/31 10:11:50;;;;;;;6.18;2.00;;;22.30;78.50;;;;;;5058291;28;45372;-68
2022/08/31 10:14:34;;;;;;;2.22;1.65;;;22.50;78.10;;;;;;5061829;28;45261;-68
2022/08/31 10:17:09;;;;;;;5.88;2.00;;;22.60;77.20;;;;;;5060911;28;45679;-69
2022/08/31 10:19:53;;;;;;;4.70;2.05;;;22.50;77.00;;;;;;5061825;28;47803;-69
2022/08/31 10:22:31;;;;;;;7.03;2.50;;;22.70;77.30;;;;;;5058972;28;45534;-68
2022/08/31 10:25:13;;;;;;;5.93;2.22;;;22.60;77.30;;;;;;5063235;28;45388;-68
2022/08/31 10:27:46;;;;;;;5.50;1.80;;;22.50;76.50;;;;;;5057139;28;45392;-68
2022/08/31 10:30:21;;;;;;;8.25;3.72;;;22.40;77.50;;;;;;5064668;28;47805;-69
2022/08/31 10:32:54;;;;;;;3.47;1.90;;;22.40;77.00;;;;;;5057849;28;45542;-68
2022/08/31 10:35:26;;;;;;;4.10;1.90;;;22.50;77.30;;;;;;5061888;28;45282;-68
2022/08/31 10:37:59;;;;;;;3.72;1.98;;;22.50;75.90;;;;;;5064097;28;45325;-68
2022/08/31 10:40:30;;;;;;;3.63;1.40;;;22.60;77.30;;;;;;5063518;28;48209;-68
2022/08/31 10:43:08;;;;;;;4.00;2.05;;;22.50;77.30;;;;;;5064296;28;45253;-68
2022/08/31 10:45:41;;;;;;;6.25;1.83;;;22.60;77.10;;;;;;5062511;28;45385;-68
2022/08/31 10:48:09;;;;;;;5.22;2.10;;;22.60;76.60;;;;;;5062865;28;45594;-68
2022/08/31 10:50:43;;;;;;;3.90;1.92;;;22.60;76.60;;;;;;5061789;28;46525;-68
2022/08/31 10:53:21;;;;;;;3.80;1.90;;;22.60;77.30;;;;;;5061848;28;45543;-68
2022/08/31 10:55:57;;;;;;;3.30;2.00;;;22.60;77.60;;;;;;5059010;28;45281;-68
2022/08/31 10:58:32;;;;;;;6.15;1.73;;;22.60;76.50;;;;;;5060218;28;45606;-68
2022/08/31 11:01:07;;;;;;;3.50;1.70;;;22.80;76.10;;;;;;5062819;28;46418;-68
2022/08/31 11:03:57;;;;;;;3.55;2.22;;;22.80;76.80;;;;;;5061507;28;45485;-69
2022/08/31 11:06:33;;;;;;;2.17;1.73;;;22.70;75.20;;;;;;5060112;28;45486;-68
2022/08/31 11:09:07;;;;;;;5.13;2.30;;;22.70;76.00;;;;;;5062142;28;45464;-68
2022/08/31 11:11:40;;;;;;;3.28;2.03;;;22.80;75.40;;;;;;5061524;28;47466;-69
2022/08/31 11:14:31;;;;;;;7.00;2.22;;;22.80;76.30;;;;;;5060276;28;45769;-68
2022/08/31 11:17:26;;;;;;;5.07;1.95;;;22.80;74.50;;;;;;5060859;28;45669;-69
2022/08/31 11:20:09;;;;;;;4.50;1.98;;;22.80;74.90;;;;;;5059759;28;45471;-68
2022/08/31 11:23:04;;;;;;;4.95;2.40;;;22.80;75.70;;;;;;5062254;28;45384;-69
2022/08/31 11:25:51;;;;;;;3.00;1.95;;;22.90;74.60;;;;;;5060789;28;46402;-68
2022/08/31 11:28:32;;;;;;;2.60;1.88;;;23.00;75.00;;;;;;5061492;28;45437;-69
2022/08/31 11:31:01;;;;;;;5.80;2.20;;;23.00;75.20;;;;;;5061550;28;45451;-69
2022/08/31 11:33:30;;;;;;;3.65;1.90;;;23.10;74.30;;;;;;5054060;28;47328;-68
2022/08/31 11:36:04;;;;;;;3.05;1.50;;;23.10;73.60;;;;;;5061555;28;45378;-68
2022/08/31 11:38:51;;;;;;;3.55;1.85;;;23.10;74.50;;;;;;5062723;28;45284;-68
2022/08/31 11:41:40;;;;;;;5.38;2.17;;;23.10;74.50;;;;;;5056934;28;45360;-68
2022/08/31 11:44:08;;;;;;;5.68;2.17;;;23.20;74.80;;;;;;5059662;28;46269;-68
2022/08/31 11:47:02;;;;;;;2.60;1.90;;;23.20;74.30;;;;;;5059690;28;45381;-68
2022/08/31 11:49:42;;;;;;;2.80;1.90;;;23.10;74.90;;;;;;5061000;28;45598;-69
2022/08/31 11:52:27;;;;;;;3.50;1.95;;;23.20;74.10;;;;;;5058376;28;45452;-68
2022/08/31 11:55:16;;;;;;;4.57;2.10;;;23.20;73.10;;;;;;5052172;28;47120;-68
2022/08/31 11:58:20;;;;;;;5.60;2.38;;;23.20;73.60;;;;;;5052478;28;45369;-68
2022/08/31 12:00:52;;;;;;;5.03;2.00;;;23.20;76.90;;;;;;5055689;28;45398;-68
2022/08/31 12:03:49;;;;;;;3.42;2.20;;;23.10;74.10;;;;;;5058092;28;45416;-68
2022/08/31 12:06:58;;;;;;;4.10;1.27;;;23.20;73.80;;;;;;5059545;28;45483;-68
2022/08/31 12:10:15;;;;;;;3.05;1.70;;;23.20;73.80;;;;;;5055930;28;46393;-68
2022/08/31 12:13:18;;;;;;;6.28;1.90;;;23.20;74.20;;;;;;5061252;28;45586;-68
2022/08/31 12:16:11;;;;;;;3.35;1.67;;;23.10;74.70;;;;;;5060809;28;45610;-67
2022/08/31 12:18:51;;;;;;;4.30;2.00;;;23.10;73.40;;;;;;5061290;28;47065;-68
2022/08/31 12:24:23;;;;;;;2.38;1.60;;;23.20;73.70;;;;;;5061149;28;45540;-68
2022/08/31 12:27:20;;;;;;;1.70;1.60;;;23.20;72.60;;;;;;5053812;28;45388;-69
2022/08/31 12:29:46;;;;;;;4.35;1.77;;;23.20;73.40;;;;;;5050127;28;45391;-68
2022/08/31 12:32:28;;;;;;;2.47;1.63;;;23.10;75.20;;;;;;5055083;28;45556;-68
2022/08/31 12:35:11;;;;;;;2.42;1.70;;;23.10;76.20;;;;;;5056068;28;45554;-68
2022/08/31 12:37:39;;;;;;;2.67;1.98;;;23.10;77.50;;;;;;5057001;28;45393;-68
2022/08/31 12:40:10;;;;;;;2.97;1.90;;;23.00;74.50;;;;;;5051805;28;46491;-68
2022/08/31 12:42:42;;;;;;;1.73;1.20;;;23.10;74.00;;;;;;5062600;28;45472;-68
2022/08/31 12:45:12;;;;;;;3.22;1.45;;;23.20;74.80;;;;;;5060968;28;45353;-69
2022/08/31 12:47:51;;;;;;;2.15;1.27;;;23.40;74.30;;;;;;5058366;28;45444;-68
2022/08/31 12:50:27;;;;;;;3.25;1.10;;;23.50;74.00;;;;;;5058592;28;46269;-69
2022/08/31 12:53:27;;;;;;;5.97;2.25;;;23.50;73.10;;;;;;5059652;28;45972;-69
2022/08/31 12:55:59;;;;;;;4.00;1.45;;;23.70;71.80;;;;;;5034834;28;45321;-68
2022/08/31 12:58:49;;;;;;;3.30;1.30;;;23.70;72.80;;;;;;5058774;28;45788;-68
2022/08/31 13:01:20;;;;;;;4.78;2.20;;;23.70;72.60;;;;;;5056151;28;47065;-69
2022/08/31 13:03:52;;;;;;;3.88;1.90;;;23.70;67.50;;;;;;5061743;28;45454;-68
2022/08/31 13:06:26;;;;;;;4.47;1.95;;;23.70;68.50;;;;;;5058604;28;45455;-68
2022/08/31 13:08:54;;;;;;;3.72;2.03;;;23.60;68.50;;;;;;5058101;28;45343;-69
2022/08/31 13:11:30;;;;;;;1.95;1.45;;;23.70;66.20;;;;;;5059020;28;46568;-69
2022/08/31 13:14:11;;;;;;;2.67;1.73;;;23.70;71.40;;;;;;5060431;28;45313;-69
2022/08/31 13:16:40;;;;;;;2.70;1.48;;;23.70;68.70;;;;;;5054226;28;45340;-68
2022/08/31 13:19:18;;;;;;;7.10;1.42;;;23.70;71.20;;;;;;5059082;28;45466;-68
2022/08/31 13:21:49;;;;;;;3.88;2.20;;;23.70;71.60;;;;;;5056855;28;46294;-68